N585RS LKTB-LOWW
Flight info
| Callsign | N585RS |
|---|---|
| Flight time | 0h 48m |
| Altitude | 12000 |
| Route | MIKOV MIKOV8W |
| Aircraft | BE56/L-SDFGRY/S |
Departure
| Time | 2026-05-06 19:24 |
|---|---|
| Airport | Brno-Tuřany Airport (LKTB) |
Arrival
| Time | 2026-05-06 20:12 |
|---|---|
| Airport | Vienna International Airport (LOWW) |
| Time | Latitude | Longitude | Altitude | Speed | Heading |
|---|---|---|---|---|---|
| 2026-05-06 19:16 | 49.15571 | 16.68729 | 784 ft | 0 kts | 96° |
| 2026-05-06 19:21 | 49.15563 | 16.68764 | 782 ft | 10 kts | 143° |
| 2026-05-06 19:21 | 49.15488 | 16.68744 | 782 ft | 11 kts | 202° |
| 2026-05-06 19:21 | 49.15416 | 16.68712 | 782 ft | 10 kts | 183° |
| 2026-05-06 19:21 | 49.15387 | 16.68637 | 781 ft | 12 kts | 280° |
| 2026-05-06 19:22 | 49.15360 | 16.68518 | 781 ft | 13 kts | 187° |
| 2026-05-06 19:22 | 49.15297 | 16.68510 | 780 ft | 0 kts | 192° |
| 2026-05-06 19:23 | 49.15249 | 16.68498 | 778 ft | 18 kts | 185° |
| 2026-05-06 19:23 | 49.15202 | 16.68609 | 776 ft | 30 kts | 98° |
| 2026-05-06 19:23 | 49.15126 | 16.69338 | 804 ft | 98 kts | 102° |
| 2026-05-06 19:23 | 49.15031 | 16.70460 | 1113 ft | 113 kts | 103° |
| 2026-05-06 19:24 | 49.14946 | 16.71688 | 1464 ft | 121 kts | 109° |
| 2026-05-06 19:24 | 49.14818 | 16.72991 | 1871 ft | 125 kts | 111° |
| 2026-05-06 19:24 | 49.14707 | 16.74322 | 2321 ft | 127 kts | 112° |
| 2026-05-06 19:24 | 49.14586 | 16.75670 | 2774 ft | 130 kts | 112° |
| 2026-05-06 19:25 | 49.14461 | 16.77063 | 3144 ft | 139 kts | 111° |
| 2026-05-06 19:25 | 49.14308 | 16.78574 | 3404 ft | 145 kts | 116° |
| 2026-05-06 19:25 | 49.13733 | 16.79704 | 3668 ft | 134 kts | 155° |
| 2026-05-06 19:25 | 49.12849 | 16.80014 | 3998 ft | 133 kts | 188° |
| 2026-05-06 19:26 | 49.12024 | 16.79406 | 4314 ft | 137 kts | 221° |
| 2026-05-06 19:26 | 49.11363 | 16.78344 | 4619 ft | 139 kts | 223° |
| 2026-05-06 19:26 | 49.10690 | 16.77279 | 4954 ft | 140 kts | 224° |
| 2026-05-06 19:26 | 49.10012 | 16.76196 | 5266 ft | 143 kts | 224° |
| 2026-05-06 19:27 | 49.09320 | 16.75089 | 5588 ft | 145 kts | 224° |
| 2026-05-06 19:27 | 49.08620 | 16.73970 | 5913 ft | 147 kts | 224° |
| 2026-05-06 19:27 | 49.07912 | 16.72840 | 6246 ft | 148 kts | 224° |
| 2026-05-06 19:27 | 49.07201 | 16.71705 | 6577 ft | 147 kts | 223° |
| 2026-05-06 19:28 | 49.06494 | 16.70578 | 6905 ft | 148 kts | 224° |
| 2026-05-06 19:28 | 49.05782 | 16.69491 | 7243 ft | 146 kts | 217° |
| 2026-05-06 19:28 | 49.04854 | 16.68917 | 7566 ft | 147 kts | 191° |
| 2026-05-06 19:28 | 49.03843 | 16.68667 | 7906 ft | 147 kts | 192° |
| 2026-05-06 19:29 | 49.02838 | 16.68396 | 8253 ft | 147 kts | 192° |
| 2026-05-06 19:29 | 49.01828 | 16.68132 | 8593 ft | 148 kts | 192° |
| 2026-05-06 19:29 | 49.00805 | 16.67868 | 8930 ft | 150 kts | 192° |
| 2026-05-06 19:29 | 48.99774 | 16.67602 | 9280 ft | 151 kts | 192° |
| 2026-05-06 19:30 | 48.98739 | 16.67335 | 9633 ft | 150 kts | 192° |
| 2026-05-06 19:30 | 48.97704 | 16.67066 | 9957 ft | 151 kts | 192° |
| 2026-05-06 19:30 | 48.96656 | 16.66794 | 10223 ft | 156 kts | 192° |
| 2026-05-06 19:30 | 48.95575 | 16.66515 | 10477 ft | 159 kts | 192° |
| 2026-05-06 19:31 | 48.94483 | 16.66232 | 10760 ft | 160 kts | 192° |
| 2026-05-06 19:31 | 48.93382 | 16.65947 | 11038 ft | 161 kts | 192° |
| 2026-05-06 19:31 | 48.91094 | 16.65353 | 11413 ft | 171 kts | 192° |
| 2026-05-06 19:32 | 48.89916 | 16.65050 | 11614 ft | 171 kts | 192° |
| 2026-05-06 19:32 | 48.88739 | 16.64746 | 11741 ft | 174 kts | 192° |
| 2026-05-06 19:32 | 48.87522 | 16.64430 | 11747 ft | 180 kts | 192° |
| 2026-05-06 19:32 | 48.86272 | 16.64107 | 11754 ft | 184 kts | 192° |
| 2026-05-06 19:33 | 48.84997 | 16.63779 | 11754 ft | 187 kts | 192° |
| 2026-05-06 19:33 | 48.83706 | 16.63447 | 11756 ft | 190 kts | 192° |
| 2026-05-06 19:33 | 48.82396 | 16.63110 | 11757 ft | 191 kts | 192° |
| 2026-05-06 19:33 | 48.81081 | 16.62772 | 11758 ft | 192 kts | 192° |
| 2026-05-06 19:34 | 48.79745 | 16.62669 | 11759 ft | 195 kts | 174° |
| 2026-05-06 19:34 | 48.78416 | 16.63149 | 11757 ft | 197 kts | 169° |
| 2026-05-06 19:34 | 48.77083 | 16.63615 | 11757 ft | 196 kts | 173° |
| 2026-05-06 19:34 | 48.75742 | 16.63991 | 11759 ft | 196 kts | 174° |
| 2026-05-06 19:35 | 48.74401 | 16.64351 | 11760 ft | 196 kts | 174° |
| 2026-05-06 19:35 | 48.73058 | 16.64720 | 11760 ft | 196 kts | 174° |
| 2026-05-06 19:35 | 48.71718 | 16.65089 | 11760 ft | 196 kts | 174° |
| 2026-05-06 19:35 | 48.70377 | 16.65459 | 11758 ft | 196 kts | 174° |
| 2026-05-06 19:36 | 48.69038 | 16.65828 | 11758 ft | 195 kts | 174° |
| 2026-05-06 19:36 | 48.67700 | 16.66195 | 11758 ft | 195 kts | 174° |
| 2026-05-06 19:36 | 48.66365 | 16.66563 | 11760 ft | 195 kts | 174° |
| 2026-05-06 19:36 | 48.65030 | 16.66930 | 11759 ft | 195 kts | 174° |
| 2026-05-06 19:37 | 48.63697 | 16.67297 | 11758 ft | 195 kts | 174° |
| 2026-05-06 19:37 | 48.62364 | 16.67663 | 11758 ft | 195 kts | 174° |
| 2026-05-06 19:37 | 48.61029 | 16.68029 | 11758 ft | 195 kts | 174° |
| 2026-05-06 19:37 | 48.59700 | 16.68396 | 11756 ft | 192 kts | 174° |
| 2026-05-06 19:38 | 48.58391 | 16.68756 | 11752 ft | 190 kts | 174° |
| 2026-05-06 19:38 | 48.57103 | 16.69053 | 11746 ft | 184 kts | 182° |
| 2026-05-06 19:38 | 48.55948 | 16.68450 | 11750 ft | 178 kts | 219° |
| 2026-05-06 19:38 | 48.55317 | 16.66855 | 11761 ft | 184 kts | 254° |
| 2026-05-06 19:39 | 48.55510 | 16.64916 | 11761 ft | 198 kts | 291° |
| 2026-05-06 19:39 | 48.56533 | 16.63460 | 11761 ft | 212 kts | 329° |
| 2026-05-06 19:39 | 48.57987 | 16.62917 | 11762 ft | 218 kts | 347° |
| 2026-05-06 19:39 | 48.59498 | 16.62616 | 11760 ft | 219 kts | 348° |
| 2026-05-06 19:40 | 48.61012 | 16.62256 | 11660 ft | 220 kts | 345° |
| 2026-05-06 19:40 | 48.62514 | 16.61827 | 11527 ft | 221 kts | 352° |
| 2026-05-06 19:40 | 48.64016 | 16.62317 | 11402 ft | 225 kts | 29° |
| 2026-05-06 19:40 | 48.65081 | 16.63993 | 11275 ft | 222 kts | 67° |
| 2026-05-06 19:41 | 48.65329 | 16.66200 | 11152 ft | 210 kts | 105° |
| 2026-05-06 19:41 | 48.64719 | 16.68074 | 11034 ft | 194 kts | 142° |
| 2026-05-06 19:41 | 48.63572 | 16.68881 | 10920 ft | 179 kts | 180° |
| 2026-05-06 19:41 | 48.62361 | 16.68662 | 10808 ft | 174 kts | 196° |
| 2026-05-06 19:42 | 48.61179 | 16.68296 | 10695 ft | 174 kts | 190° |
| 2026-05-06 19:42 | 48.59960 | 16.68268 | 10568 ft | 177 kts | 178° |
| 2026-05-06 19:42 | 48.58745 | 16.68583 | 10453 ft | 178 kts | 173° |
| 2026-05-06 19:42 | 48.57537 | 16.68974 | 10322 ft | 177 kts | 174° |
| 2026-05-06 19:43 | 48.56358 | 16.68859 | 10206 ft | 170 kts | 205° |
| 2026-05-06 19:43 | 48.55492 | 16.67688 | 10091 ft | 172 kts | 237° |
| 2026-05-06 19:43 | 48.55261 | 16.65906 | 9987 ft | 182 kts | 273° |
| 2026-05-06 19:43 | 48.55863 | 16.64211 | 9969 ft | 191 kts | 313° |
| 2026-05-06 19:44 | 48.57082 | 16.63374 | 9971 ft | 197 kts | 342° |
| 2026-05-06 19:44 | 48.58428 | 16.63006 | 9968 ft | 197 kts | 345° |
| 2026-05-06 19:44 | 48.59770 | 16.62625 | 9970 ft | 196 kts | 344° |
| 2026-05-06 19:44 | 48.61102 | 16.62208 | 9973 ft | 196 kts | 344° |
| 2026-05-06 19:45 | 48.62454 | 16.61941 | 9961 ft | 199 kts | 2° |
| 2026-05-06 19:45 | 48.63735 | 16.62710 | 9962 ft | 201 kts | 41° |
| 2026-05-06 19:45 | 48.64416 | 16.64432 | 9961 ft | 192 kts | 84° |
| 2026-05-06 19:45 | 48.64225 | 16.66340 | 9967 ft | 184 kts | 126° |
| 2026-05-06 19:46 | 48.63288 | 16.67531 | 9972 ft | 176 kts | 167° |
| 2026-05-06 19:46 | 48.62081 | 16.67825 | 9972 ft | 179 kts | 178° |
| 2026-05-06 19:46 | 48.60829 | 16.68075 | 9974 ft | 184 kts | 175° |
| 2026-05-06 19:46 | 48.59555 | 16.68417 | 9971 ft | 187 kts | 173° |
| 2026-05-06 19:47 | 48.58268 | 16.68787 | 9930 ft | 191 kts | 173° |
| 2026-05-06 19:47 | 48.56942 | 16.69193 | 9761 ft | 198 kts | 170° |
| 2026-05-06 19:47 | 48.55600 | 16.69705 | 9599 ft | 199 kts | 171° |
| 2026-05-06 19:47 | 48.54253 | 16.70188 | 9424 ft | 199 kts | 171° |
| 2026-05-06 19:48 | 48.52906 | 16.70678 | 9246 ft | 199 kts | 171° |
| 2026-05-06 19:48 | 48.51561 | 16.71171 | 9069 ft | 198 kts | 171° |
| 2026-05-06 19:48 | 48.50238 | 16.71656 | 8940 ft | 194 kts | 172° |
| 2026-05-06 19:48 | 48.48934 | 16.72134 | 8809 ft | 192 kts | 172° |
| 2026-05-06 19:49 | 48.47643 | 16.72606 | 8683 ft | 190 kts | 172° |
| 2026-05-06 19:49 | 48.46358 | 16.73075 | 8553 ft | 190 kts | 172° |
| 2026-05-06 19:49 | 48.45078 | 16.73541 | 8422 ft | 189 kts | 172° |
| 2026-05-06 19:49 | 48.43805 | 16.74005 | 8295 ft | 188 kts | 172° |
| 2026-05-06 19:50 | 48.42536 | 16.74466 | 8167 ft | 187 kts | 172° |
| 2026-05-06 19:50 | 48.41269 | 16.74928 | 8042 ft | 187 kts | 172° |
| 2026-05-06 19:50 | 48.40005 | 16.75386 | 7916 ft | 187 kts | 172° |
| 2026-05-06 19:50 | 48.38744 | 16.75846 | 7792 ft | 186 kts | 172° |
| 2026-05-06 19:51 | 48.37484 | 16.76303 | 7673 ft | 186 kts | 172° |
| 2026-05-06 19:51 | 48.36229 | 16.76759 | 7550 ft | 185 kts | 172° |
| 2026-05-06 19:51 | 48.34980 | 16.77212 | 7419 ft | 184 kts | 172° |
| 2026-05-06 19:51 | 48.33731 | 16.77610 | 7302 ft | 181 kts | 182° |
| 2026-05-06 19:52 | 48.32592 | 16.77051 | 7180 ft | 174 kts | 220° |
| 2026-05-06 19:52 | 48.32026 | 16.75462 | 7065 ft | 180 kts | 258° |
| 2026-05-06 19:52 | 48.32287 | 16.73593 | 6985 ft | 190 kts | 290° |
| 2026-05-06 19:52 | 48.32972 | 16.71927 | 6985 ft | 184 kts | 291° |
| 2026-05-06 19:53 | 48.33514 | 16.70218 | 6983 ft | 179 kts | 285° |
| 2026-05-06 19:53 | 48.33986 | 16.68492 | 6981 ft | 178 kts | 284° |
| 2026-05-06 19:53 | 48.34453 | 16.66773 | 6978 ft | 178 kts | 284° |
| 2026-05-06 19:53 | 48.34926 | 16.65044 | 6978 ft | 179 kts | 284° |
| 2026-05-06 19:54 | 48.35402 | 16.63310 | 6980 ft | 180 kts | 284° |
| 2026-05-06 19:54 | 48.35951 | 16.61611 | 6979 ft | 186 kts | 298° |
| 2026-05-06 19:54 | 48.36974 | 16.60338 | 6973 ft | 200 kts | 329° |
| 2026-05-06 19:54 | 48.38382 | 16.60087 | 6971 ft | 209 kts | 0° |
| 2026-05-06 19:55 | 48.39840 | 16.60335 | 6979 ft | 213 kts | 3° |
| 2026-05-06 19:55 | 48.41311 | 16.60611 | 6982 ft | 214 kts | 3° |
| 2026-05-06 19:55 | 48.42794 | 16.60892 | 6943 ft | 216 kts | 3° |
| 2026-05-06 19:55 | 48.44313 | 16.61183 | 6833 ft | 223 kts | 3° |
| 2026-05-06 19:56 | 48.45868 | 16.61479 | 6721 ft | 227 kts | 3° |
| 2026-05-06 19:56 | 48.47421 | 16.61773 | 6625 ft | 221 kts | 4° |
| 2026-05-06 19:56 | 48.48923 | 16.62053 | 6508 ft | 215 kts | 3° |
| 2026-05-06 19:56 | 48.50397 | 16.62335 | 6383 ft | 212 kts | 2° |
| 2026-05-06 19:57 | 48.51858 | 16.62630 | 6262 ft | 210 kts | 3° |
| 2026-05-06 19:57 | 48.53299 | 16.62918 | 6143 ft | 208 kts | 4° |
| 2026-05-06 19:57 | 48.54745 | 16.63150 | 6011 ft | 209 kts | 358° |
| 2026-05-06 19:57 | 48.56199 | 16.62988 | 5883 ft | 211 kts | 350° |
| 2026-05-06 19:58 | 48.57672 | 16.62730 | 5761 ft | 215 kts | 349° |
| 2026-05-06 19:58 | 48.59165 | 16.62479 | 5636 ft | 216 kts | 351° |
| 2026-05-06 19:58 | 48.60626 | 16.62076 | 5513 ft | 210 kts | 334° |
| 2026-05-06 19:58 | 48.61689 | 16.60711 | 5377 ft | 197 kts | 295° |
| 2026-05-06 19:59 | 48.61943 | 16.58772 | 5259 ft | 187 kts | 257° |
| 2026-05-06 19:59 | 48.61331 | 16.57107 | 5144 ft | 183 kts | 224° |
| 2026-05-06 19:59 | 48.60347 | 16.55874 | 5031 ft | 185 kts | 219° |
| 2026-05-06 19:59 | 48.59325 | 16.54689 | 4970 ft | 184 kts | 218° |
| 2026-05-06 20:00 | 48.58333 | 16.53548 | 4970 ft | 178 kts | 218° |
| 2026-05-06 20:00 | 48.57346 | 16.52433 | 4969 ft | 173 kts | 218° |
| 2026-05-06 20:00 | 48.56334 | 16.51473 | 4960 ft | 172 kts | 205° |
| 2026-05-06 20:00 | 48.55207 | 16.50867 | 4958 ft | 172 kts | 204° |
| 2026-05-06 20:01 | 48.54044 | 16.50312 | 4962 ft | 179 kts | 201° |
| 2026-05-06 20:01 | 48.52856 | 16.49769 | 4962 ft | 182 kts | 201° |
| 2026-05-06 20:01 | 48.52035 | 16.49384 | 4965 ft | 184 kts | 201° |
| 2026-05-06 20:01 | 48.50415 | 16.48619 | 4972 ft | 184 kts | 201° |
| 2026-05-06 20:02 | 48.49194 | 16.48059 | 4974 ft | 183 kts | 201° |
| 2026-05-06 20:02 | 48.47974 | 16.47501 | 4973 ft | 184 kts | 201° |
| 2026-05-06 20:02 | 48.46754 | 16.46934 | 4973 ft | 183 kts | 201° |
| 2026-05-06 20:02 | 48.45532 | 16.46359 | 4977 ft | 185 kts | 201° |
| 2026-05-06 20:03 | 48.44695 | 16.45969 | 4976 ft | 187 kts | 201° |
| 2026-05-06 20:03 | 48.43450 | 16.45425 | 4970 ft | 188 kts | 193° |
| 2026-05-06 20:03 | 48.42138 | 16.45299 | 4974 ft | 190 kts | 184° |
| 2026-05-06 20:03 | 48.40816 | 16.45576 | 4974 ft | 195 kts | 171° |
| 2026-05-06 20:04 | 48.39503 | 16.46091 | 4978 ft | 195 kts | 170° |
| 2026-05-06 20:04 | 48.38191 | 16.46657 | 4977 ft | 196 kts | 168° |
| 2026-05-06 20:04 | 48.36897 | 16.47215 | 4981 ft | 196 kts | 170° |
| 2026-05-06 20:04 | 48.35569 | 16.47777 | 4982 ft | 196 kts | 169° |
| 2026-05-06 20:05 | 48.34260 | 16.48343 | 4985 ft | 195 kts | 169° |
| 2026-05-06 20:05 | 48.32938 | 16.48903 | 4846 ft | 200 kts | 169° |
| 2026-05-06 20:05 | 48.31596 | 16.49472 | 4593 ft | 199 kts | 170° |
| 2026-05-06 20:05 | 48.30279 | 16.50039 | 4331 ft | 195 kts | 170° |
| 2026-05-06 20:06 | 48.29000 | 16.50586 | 4078 ft | 192 kts | 170° |
| 2026-05-06 20:06 | 48.27731 | 16.51127 | 3807 ft | 185 kts | 172° |
| 2026-05-06 20:06 | 48.26535 | 16.51639 | 3567 ft | 174 kts | 172° |
| 2026-05-06 20:06 | 48.25408 | 16.52118 | 3350 ft | 159 kts | 172° |
| 2026-05-06 20:07 | 48.24419 | 16.52542 | 3151 ft | 141 kts | 174° |
| 2026-05-06 20:07 | 48.23474 | 16.52935 | 2971 ft | 141 kts | 173° |
| 2026-05-06 20:07 | 48.22542 | 16.53334 | 2785 ft | 137 kts | 173° |
| 2026-05-06 20:07 | 48.21634 | 16.53720 | 2609 ft | 135 kts | 173° |
| 2026-05-06 20:08 | 48.20732 | 16.54104 | 2433 ft | 134 kts | 173° |
| 2026-05-06 20:08 | 48.19831 | 16.54487 | 2259 ft | 136 kts | 172° |
| 2026-05-06 20:08 | 48.18941 | 16.54867 | 2076 ft | 125 kts | 172° |
| 2026-05-06 20:08 | 48.18153 | 16.55211 | 1919 ft | 110 kts | 172° |
| 2026-05-06 20:09 | 48.17446 | 16.55491 | 1780 ft | 102 kts | 172° |
| 2026-05-06 20:09 | 48.16792 | 16.55779 | 1648 ft | 94 kts | 170° |
| 2026-05-06 20:09 | 48.16194 | 16.56041 | 1528 ft | 84 kts | 171° |
| 2026-05-06 20:09 | 48.15664 | 16.56255 | 1429 ft | 76 kts | 168° |
| 2026-05-06 20:10 | 48.15160 | 16.56474 | 1323 ft | 78 kts | 169° |
| 2026-05-06 20:10 | 48.14636 | 16.56691 | 1236 ft | 79 kts | 168° |
| 2026-05-06 20:10 | 48.14105 | 16.56917 | 1109 ft | 77 kts | 166° |
| 2026-05-06 20:10 | 48.13598 | 16.57097 | 984 ft | 77 kts | 161° |
| 2026-05-06 20:11 | 48.13067 | 16.57334 | 997 ft | 82 kts | 159° |
| 2026-05-06 20:11 | 48.12499 | 16.57608 | 835 ft | 89 kts | 161° |
| 2026-05-06 20:11 | 48.11896 | 16.57865 | 640 ft | 88 kts | 164° |
| 2026-05-06 20:11 | 48.11393 | 16.58074 | 608 ft | 63 kts | 163° |
| 2026-05-06 20:12 | 48.10993 | 16.58246 | 604 ft | 54 kts | 163° |
| 2026-05-06 20:12 | 48.10693 | 16.58374 | 604 ft | 37 kts | 165° |
| 2026-05-06 20:12 | 48.10477 | 16.58431 | 604 ft | 29 kts | 166° |
| 2026-05-06 20:12 | 48.10279 | 16.58453 | 604 ft | 28 kts | 188° |
| 2026-05-06 20:13 | 48.10110 | 16.58364 | 603 ft | 18 kts | 248° |